Time;durP1;ratioP1;P1;durP2;ratioP2;P2;SDS_P1;SDS_P2;PMS_P1;PMS_P2;Temp;Humidity;BMP_temperature;BMP_pressure;BME280_temperature;BME280_humidity;BME280_pressure;Samples;Min_cycle;Max_cycle;Signal;HPM_P1;HPM_P2
2022/04/25 00:01:50;;;;;;;8.47;1.90;;;16.20;95.90;;;;;;5074726;28;20191;-70
2022/04/25 00:04:18;;;;;;;5.53;2.03;;;16.10;95.90;;;;;;5053869;28;20896;-71
2022/04/25 00:06:45;;;;;;;3.73;2.07;;;16.10;95.90;;;;;;5056717;28;20186;-70
2022/04/25 00:09:11;;;;;;;5.90;1.87;;;16.10;96.00;;;;;;5072497;28;20218;-72
2022/04/25 00:11:37;;;;;;;4.30;1.90;;;16.10;96.00;;;;;;5069869;28;20260;-71
2022/04/25 00:14:06;;;;;;;7.87;1.90;;;16.10;96.00;;;;;;5055792;28;20194;-71
2022/04/25 00:16:35;;;;;;;5.10;2.20;;;16.10;96.00;;;;;;5062613;28;20191;-72
2022/04/25 00:19:05;;;;;;;6.40;2.17;;;16.10;96.10;;;;;;5056814;28;20240;-71
2022/04/25 00:21:32;;;;;;;3.27;1.70;;;16.10;96.20;;;;;;5054383;28;20191;-70
2022/04/25 00:23:59;;;;;;;6.73;2.23;;;16.10;96.30;;;;;;5084359;28;20276;-70
2022/04/25 00:26:25;;;;;;;6.60;2.27;;;16.00;96.40;;;;;;5068205;28;20186;-70
2022/04/25 00:28:52;;;;;;;5.10;1.90;;;16.00;96.40;;;;;;5056020;28;20274;-71
2022/04/25 00:31:18;;;;;;;6.33;1.90;;;16.00;96.40;;;;;;5060438;28;20663;-71
2022/04/25 00:33:45;;;;;;;6.70;2.00;;;16.00;96.30;;;;;;5070865;28;20190;-71
2022/04/25 00:36:12;;;;;;;4.53;1.90;;;16.00;96.20;;;;;;5054410;28;20546;-71
2022/04/25 00:38:39;;;;;;;6.93;2.13;;;16.00;96.20;;;;;;5073886;28;20218;-70
2022/04/25 00:41:13;;;;;;;9.43;1.73;;;16.00;96.10;;;;;;5087321;28;20186;-70
2022/04/25 00:43:40;;;;;;;6.70;1.97;;;16.00;96.10;;;;;;5071415;28;20198;-71
2022/04/25 00:46:19;;;;;;;6.47;2.03;;;16.00;96.00;;;;;;5072551;28;20662;-71
2022/04/25 00:48:46;;;;;;;3.37;1.67;;;15.90;96.00;;;;;;5080624;28;20194;-71
2022/04/25 00:51:13;;;;;;;4.13;1.83;;;15.90;95.90;;;;;;5084393;28;20283;-71
2022/04/25 00:53:39;;;;;;;5.00;1.87;;;15.90;96.00;;;;;;5092841;28;20183;-71
2022/04/25 00:56:08;;;;;;;5.87;2.00;;;15.90;96.00;;;;;;5073277;28;20179;-71
2022/04/25 00:58:36;;;;;;;5.73;1.93;;;15.90;96.00;;;;;;5073439;28;20222;-71
2022/04/25 01:01:03;;;;;;;5.97;1.70;;;15.90;96.00;;;;;;5070819;28;20186;-71
2022/04/25 01:03:30;;;;;;;3.03;1.83;;;15.90;96.00;;;;;;5051861;28;20235;-70
2022/04/25 01:05:56;;;;;;;7.13;2.30;;;15.90;96.00;;;;;;5060621;28;20214;-70
2022/04/25 01:08:23;;;;;;;5.77;2.10;;;15.90;95.90;;;;;;5071128;28;22489;-71
2022/04/25 01:10:49;;;;;;;6.53;2.00;;;15.90;95.90;;;;;;5068225;28;20210;-70
2022/04/25 01:13:16;;;;;;;4.03;1.97;;;15.80;95.80;;;;;;5062003;28;20186;-70
2022/04/25 01:15:42;;;;;;;5.17;1.73;;;15.80;95.80;;;;;;5083555;28;20277;-71
2022/04/25 01:18:10;;;;;;;4.77;1.90;;;15.80;95.90;;;;;;5070492;28;20206;-70
2022/04/25 01:20:43;;;;;;;6.13;1.73;;;15.90;96.20;;;;;;5067031;28;20210;-71
2022/04/25 01:28:54;;;;;;;3.00;1.80;;;15.80;96.00;;;;;;5060950;28;20524;-71
2022/04/25 01:31:21;;;;;;;3.73;2.10;;;15.80;96.20;;;;;;5062451;28;20209;-70
2022/04/25 01:33:48;;;;;;;5.77;2.20;;;15.80;96.20;;;;;;5070253;28;20194;-71
2022/04/25 01:36:15;;;;;;;7.60;2.00;;;15.80;96.20;;;;;;5067859;28;20175;-71
2022/04/25 01:38:42;;;;;;;3.57;1.90;;;15.70;96.30;;;;;;5065684;28;20237;-71
2022/04/25 01:41:09;;;;;;;5.30;2.00;;;15.70;96.30;;;;;;5070909;28;20190;-71
2022/04/25 01:43:36;;;;;;;5.77;1.93;;;15.70;96.40;;;;;;5069833;28;20182;-70
2022/04/25 01:46:03;;;;;;;4.13;1.83;;;15.70;96.40;;;;;;5053993;28;20194;-70
2022/04/25 01:48:32;;;;;;;4.30;1.80;;;15.70;96.40;;;;;;5081041;28;20277;-70
2022/04/25 01:50:59;;;;;;;8.90;2.03;;;15.70;96.40;;;;;;5081923;28;20255;-70
2022/04/25 01:53:26;;;;;;;10.63;1.77;;;15.60;96.30;;;;;;5065818;28;20186;-70
2022/04/25 01:55:52;;;;;;;7.40;2.10;;;15.60;96.30;;;;;;5042988;28;20183;-71
2022/04/25 01:58:21;;;;;;;6.67;2.03;;;15.60;96.20;;;;;;5078100;28;20236;-71
2022/04/25 02:00:51;;;;;;;3.23;1.73;;;15.60;96.10;;;;;;5066264;28;20248;-70
2022/04/25 02:03:19;;;;;;;4.07;2.07;;;15.60;96.10;;;;;;5067896;28;20183;-71
2022/04/25 02:05:45;;;;;;;6.70;1.87;;;15.50;96.20;;;;;;5065113;28;20220;-70
2022/04/25 02:08:12;;;;;;;7.57;2.10;;;15.50;96.20;;;;;;5088018;28;20801;-71
2022/04/25 02:10:38;;;;;;;6.57;3.00;;;15.50;96.20;;;;;;5070633;28;20197;-71
2022/04/25 02:13:05;;;;;;;5.57;1.83;;;15.50;96.20;;;;;;5080761;28;20218;-71
2022/04/25 02:15:32;;;;;;;4.90;1.90;;;15.50;96.20;;;;;;5068773;28;20191;-70
2022/04/25 02:17:58;;;;;;;9.93;1.70;;;15.40;96.10;;;;;;5071246;28;20186;-70
2022/04/25 02:20:24;;;;;;;4.27;1.83;;;15.40;96.00;;;;;;5072342;28;20269;-70
2022/04/25 02:22:53;;;;;;;5.87;2.00;;;15.40;96.00;;;;;;5063985;28;20194;-71
2022/04/25 02:25:20;;;;;;;5.30;2.27;;;15.40;96.00;;;;;;5081275;28;20678;-70
2022/04/25 02:27:46;;;;;;;6.37;2.10;;;15.30;95.90;;;;;;5046989;28;20190;-70
2022/04/25 02:30:13;;;;;;;8.37;2.10;;;15.30;95.90;;;;;;5069480;28;20269;-71
2022/04/25 02:32:45;;;;;;;6.50;2.20;;;15.30;95.90;;;;;;5060150;28;20318;-71
2022/04/25 02:35:11;;;;;;;6.10;2.00;;;15.30;95.90;;;;;;5048121;28;20201;-71
2022/04/25 02:37:38;;;;;;;7.40;2.20;;;15.30;96.10;;;;;;5071585;28;20222;-71
2022/04/25 02:40:10;;;;;;;6.03;2.13;;;15.30;95.90;;;;;;5071713;28;20190;-71
2022/04/25 02:42:38;;;;;;;4.50;1.93;;;15.30;96.00;;;;;;5084617;28;20186;-70
2022/04/25 02:45:05;;;;;;;6.67;2.20;;;15.30;96.10;;;;;;5061924;28;20811;-70
2022/04/25 02:47:31;;;;;;;4.40;1.70;;;15.20;96.10;;;;;;5055528;28;20223;-71
2022/04/25 02:49:58;;;;;;;4.40;1.80;;;15.20;96.10;;;;;;5049081;28;20590;-71
2022/04/25 02:52:24;;;;;;;4.43;1.80;;;15.20;96.10;;;;;;5057144;28;20214;-70
2022/04/25 02:54:50;;;;;;;5.07;1.83;;;15.20;96.30;;;;;;5060172;28;20193;-71
2022/04/25 02:57:19;;;;;;;7.83;2.10;;;15.20;96.30;;;;;;5050347;28;20190;-71
2022/04/25 02:59:45;;;;;;;8.27;2.10;;;15.20;96.30;;;;;;5061980;28;20183;-72
2022/04/25 03:02:14;;;;;;;13.73;2.00;;;15.20;96.40;;;;;;5069472;28;20197;-70
2022/04/25 03:04:50;;;;;;;4.03;1.67;;;15.10;96.30;;;;;;5068392;28;20189;-71
2022/04/25 03:07:16;;;;;;;8.10;1.87;;;15.10;96.30;;;;;;5084990;28;20190;-70
2022/04/25 03:09:42;;;;;;;3.93;1.80;;;15.10;96.20;;;;;;5090764;28;20705;-70
2022/04/25 03:12:09;;;;;;;9.87;1.93;;;15.10;96.20;;;;;;5039451;28;20209;-70
2022/04/25 03:14:36;;;;;;;7.50;1.70;;;15.10;96.00;;;;;;5048212;28;20261;-71
2022/04/25 03:17:03;;;;;;;3.03;1.63;;;15.10;95.80;;;;;;5073395;28;20178;-71
2022/04/25 03:19:30;;;;;;;6.53;1.77;;;15.00;95.80;;;;;;5084897;28;20815;-71
2022/04/25 03:21:56;;;;;;;7.03;2.10;;;15.00;96.00;;;;;;5051034;28;20186;-70
2022/04/25 03:24:23;;;;;;;6.27;1.77;;;15.00;96.10;;;;;;5050490;28;21273;-70
2022/04/25 03:26:49;;;;;;;7.13;2.00;;;15.00;96.20;;;;;;5071381;28;20186;-70
2022/04/25 03:29:17;;;;;;;5.27;1.77;;;15.00;96.30;;;;;;5069823;28;20184;-71
2022/04/25 03:31:43;;;;;;;9.40;2.23;;;15.00;96.30;;;;;;5077699;28;20785;-70
2022/04/25 03:34:09;;;;;;;10.27;1.87;;;15.00;96.30;;;;;;5053741;28;20177;-71
2022/04/25 03:36:36;;;;;;;10.23;1.77;;;15.00;96.30;;;;;;5067530;28;20182;-71
2022/04/25 03:39:02;;;;;;;9.77;1.97;;;15.00;96.20;;;;;;5065545;28;20229;-71
2022/04/25 03:41:31;;;;;;;7.50;2.00;;;15.00;96.20;;;;;;5087492;28;20193;-70
2022/04/25 03:44:06;;;;;;;5.80;1.80;;;15.00;96.20;;;;;;5046275;28;20186;-71
2022/04/25 03:46:32;;;;;;;9.37;2.00;;;15.00;96.30;;;;;;5067817;28;20299;-71
2022/04/25 03:48:58;;;;;;;6.47;1.80;;;15.00;96.40;;;;;;5090159;28;20182;-70
2022/04/25 03:51:29;;;;;;;5.47;1.87;;;15.00;96.40;;;;;;5067896;28;20214;-70
2022/04/25 03:53:55;;;;;;;4.77;1.90;;;15.00;96.60;;;;;;5048058;28;20175;-70
2022/04/25 03:59:08;;;;;;;5.43;1.60;;;15.00;96.80;;;;;;5068072;28;20190;-71
2022/04/25 04:01:36;;;;;;;7.73;1.90;;;15.10;96.90;;;;;;5042335;28;20654;-71
2022/04/25 04:04:05;;;;;;;5.00;1.77;;;15.10;97.30;;;;;;5049996;28;20183;-71
2022/04/25 04:06:35;;;;;;;3.80;1.60;;;15.10;97.40;;;;;;5064560;28;20197;-70
2022/04/25 04:09:44;;;;;;;7.57;2.40;;;15.10;97.60;;;;;;5090200;28;20193;-71
2022/04/25 04:11:48;;;;;;;7.90;2.00;;;15.10;97.80;;;;;;5067014;28;20211;-70
2022/04/25 04:14:19;;;;;;;8.50;2.10;;;15.10;98.30;;;;;;5088303;28;20209;-71
2022/04/25 04:16:45;;;;;;;7.10;1.70;;;15.10;98.50;;;;;;5049865;28;20186;-71
2022/04/25 04:19:11;;;;;;;4.13;2.07;;;15.10;98.70;;;;;;5061733;28;20194;-70
2022/04/25 04:21:39;;;;;;;2.43;1.83;;;15.10;99.00;;;;;;5063637;28;20209;-70
2022/04/25 04:24:12;;;;;;;6.43;2.20;;;15.10;99.40;;;;;;5061244;28;20550;-70
2022/04/25 04:26:38;;;;;;;11.30;1.93;;;15.20;99.70;;;;;;5064053;28;20305;-70
2022/04/25 04:29:04;;;;;;;5.60;2.10;;;15.20;99.90;;;;;;5070197;28;20198;-71
2022/04/25 04:31:31;;;;;;;4.00;2.23;;;15.20;99.90;;;;;;5090692;28;20297;-71
2022/04/25 04:33:57;;;;;;;6.67;1.90;;;15.30;99.90;;;;;;5072409;28;20181;-71
2022/04/25 04:36:26;;;;;;;6.03;1.93;;;15.20;99.90;;;;;;5085706;28;20179;-71
2022/04/25 04:38:52;;;;;;;5.30;2.00;;;15.30;99.90;;;;;;5066164;28;20620;-71
2022/04/25 04:41:19;;;;;;;5.00;2.10;;;15.30;99.90;;;;;;5076289;28;20240;-70
2022/04/25 04:43:48;;;;;;;4.00;1.80;;;15.30;99.90;;;;;;5082412;28;20178;-71
2022/04/25 04:46:14;;;;;;;3.60;1.70;;;15.40;99.90;;;;;;5085057;28;20276;-70
2022/04/25 04:48:44;;;;;;;4.00;2.10;;;15.40;99.90;;;;;;5056377;28;20197;-71
2022/04/25 04:51:11;;;;;;;6.60;1.97;;;15.40;99.90;;;;;;5074672;28;20241;-71
2022/04/25 04:53:38;;;;;;;7.50;1.90;;;15.50;99.90;;;;;;5071732;28;20560;-71
2022/04/25 04:56:05;;;;;;;5.97;1.77;;;15.50;99.90;;;;;;5072209;28;20205;-70
2022/04/25 04:58:34;;;;;;;3.43;1.90;;;15.50;99.90;;;;;;5053756;28;20235;-71
2022/04/25 05:01:01;;;;;;;6.40;2.40;;;15.50;99.90;;;;;;5086032;28;20198;-70
2022/04/25 05:03:27;;;;;;;3.17;1.83;;;15.60;99.90;;;;;;5075180;28;20187;-70
2022/04/25 05:05:55;;;;;;;4.87;1.77;;;15.60;99.90;;;;;;5063634;28;20219;-70
2022/04/25 05:08:21;;;;;;;5.57;2.00;;;15.70;99.90;;;;;;5068447;28;20187;-71
2022/04/25 05:10:48;;;;;;;4.90;2.00;;;15.70;99.90;;;;;;5053280;28;20581;-71
2022/04/25 05:13:16;;;;;;;6.57;2.33;;;15.80;99.90;;;;;;5072647;28;20202;-71
2022/04/25 05:15:42;;;;;;;4.93;2.10;;;15.80;99.90;;;;;;5084273;28;20205;-71
2022/04/25 05:18:08;;;;;;;8.97;1.97;;;15.90;99.90;;;;;;5078775;28;20198;-71
2022/04/25 05:20:39;;;;;;;4.17;1.90;;;;;;;;;;5059615;28;20691;-70
2022/04/25 05:23:10;;;;;;;4.87;2.13;;;16.00;99.90;;;;;;5076508;28;20194;-71
2022/04/25 05:25:38;;;;;;;5.33;2.50;;;16.00;99.90;;;;;;5070056;28;20657;-71
2022/04/25 05:28:07;;;;;;;5.27;2.17;;;16.10;99.90;;;;;;5082539;28;20217;-71
2022/04/25 05:30:34;;;;;;;3.17;1.80;;;16.20;99.90;;;;;;5062324;28;20222;-71
2022/04/25 05:33:05;;;;;;;3.47;1.90;;;16.20;99.90;;;;;;5066025;28;20210;-71
2022/04/25 05:35:35;;;;;;;3.50;1.80;;;16.30;99.90;;;;;;5052855;28;20226;-71
2022/04/25 05:38:03;;;;;;;3.93;1.70;;;16.40;99.90;;;;;;5066619;28;20655;-71
2022/04/25 05:40:30;;;;;;;3.80;1.60;;;16.40;99.90;;;;;;5076819;28;20183;-71
2022/04/25 05:42:58;;;;;;;3.60;1.90;;;16.50;99.90;;;;;;5053544;28;20195;-72
2022/04/25 05:45:26;;;;;;;3.33;1.70;;;16.50;99.90;;;;;;5065829;28;20202;-71
2022/04/25 05:47:58;;;;;;;8.40;2.07;;;16.60;99.90;;;;;;5050196;28;20273;-71
2022/04/25 05:53:13;;;;;;;5.47;1.90;;;16.70;99.90;;;;;;5079032;28;20197;-71
2022/04/25 05:55:41;;;;;;;4.07;2.13;;;16.70;99.90;;;;;;5061746;28;20269;-71
2022/04/25 05:58:08;;;;;;;6.77;1.70;;;16.80;99.90;;;;;;5051008;28;20250;-71
2022/04/25 06:00:35;;;;;;;3.73;1.77;;;;;;;;;;5076558;28;20252;-71
2022/04/25 06:03:02;;;;;;;5.10;2.10;;;16.90;99.90;;;;;;5066100;28;20209;-70
2022/04/25 06:05:29;;;;;;;3.13;1.90;;;16.90;99.90;;;;;;5077399;28;20194;-71
2022/04/25 06:08:05;;;;;;;7.60;1.90;;;17.00;99.90;;;;;;5063471;28;20195;-72
2022/04/25 06:10:40;;;;;;;6.67;2.17;;;17.00;99.90;;;;;;5042871;28;20194;-70
2022/04/25 06:13:08;;;;;;;7.30;2.10;;;17.10;99.90;;;;;;5060380;28;20221;-71
2022/04/25 06:15:34;;;;;;;6.73;1.93;;;17.10;99.90;;;;;;5062877;28;20273;-71
2022/04/25 06:18:01;;;;;;;4.00;2.40;;;17.20;99.90;;;;;;5059581;28;20210;-71
2022/04/25 06:20:32;;;;;;;7.90;1.97;;;17.20;99.90;;;;;;5064132;28;20186;-71
2022/04/25 06:23:03;;;;;;;7.37;1.97;;;17.30;99.90;;;;;;5045893;28;20194;-72
2022/04/25 06:25:31;;;;;;;5.90;1.93;;;17.30;99.90;;;;;;5050741;28;20198;-71
2022/04/25 06:28:00;;;;;;;10.23;2.27;;;17.40;99.90;;;;;;5059059;28;20191;-71
2022/04/25 06:30:29;;;;;;;3.83;1.93;;;17.50;99.90;;;;;;5062757;28;20194;-72
2022/04/25 06:33:04;;;;;;;5.30;1.87;;;17.50;99.90;;;;;;5060826;28;20749;-72
2022/04/25 06:35:30;;;;;;;9.87;2.30;;;17.60;99.90;;;;;;5053576;28;20657;-71
2022/04/25 06:37:57;;;;;;;7.40;2.33;;;17.60;99.90;;;;;;5079868;28;20193;-71
2022/04/25 06:40:30;;;;;;;6.73;2.80;;;17.70;99.90;;;;;;5050779;28;20195;-71
2022/04/25 06:43:03;;;;;;;12.17;4.23;;;17.70;99.90;;;;;;5070159;28;20229;-71
2022/04/25 06:45:33;;;;;;;7.57;2.90;;;17.80;99.90;;;;;;5053926;28;20663;-71
2022/04/25 06:48:04;;;;;;;5.50;2.30;;;17.90;99.90;;;;;;5061837;28;20199;-72
2022/04/25 06:50:32;;;;;;;5.87;2.40;;;17.90;99.90;;;;;;5061437;28;20222;-71
2022/04/25 06:53:00;;;;;;;14.53;2.73;;;18.00;99.90;;;;;;5070917;28;20326;-71
2022/04/25 06:55:28;;;;;;;15.00;2.97;;;18.00;99.90;;;;;;5058247;28;20212;-72
2022/04/25 06:57:57;;;;;;;5.17;2.30;;;18.10;99.90;;;;;;5063862;28;20178;-71
2022/04/25 07:00:26;;;;;;;6.00;2.37;;;18.10;99.90;;;;;;5077188;28;20186;-71
2022/04/25 07:02:55;;;;;;;14.97;2.77;;;18.20;99.90;;;;;;5053064;28;20662;-72
2022/04/25 07:05:22;;;;;;;11.77;3.70;;;18.30;99.90;;;;;;5050657;28;20582;-71
2022/04/25 07:07:48;;;;;;;5.90;2.80;;;18.40;99.90;;;;;;5072410;28;20179;-71
2022/04/25 07:10:14;;;;;;;11.67;2.40;;;18.40;99.90;;;;;;5064905;28;20189;-71
2022/04/25 07:12:42;;;;;;;8.53;2.20;;;18.60;99.90;;;;;;5069476;28;20877;-72
2022/04/25 07:15:11;;;;;;;9.63;2.90;;;18.70;99.90;;;;;;5063404;28;20178;-72
2022/04/25 07:17:43;;;;;;;9.13;2.37;;;18.70;99.90;;;;;;5059674;28;20225;-72
2022/04/25 07:20:13;;;;;;;9.07;2.67;;;18.70;99.90;;;;;;5073221;28;20179;-72
2022/04/25 07:30:59;;;;;;;23.63;3.37;;;19.00;99.90;;;;;;5061496;28;20182;-72
2022/04/25 07:33:26;;;;;;;30.63;4.23;;;19.10;99.90;;;;;;5052759;28;20208;-72
2022/04/25 07:35:54;;;;;;;28.20;3.87;;;19.20;99.90;;;;;;5044603;28;20183;-72
2022/04/25 07:38:23;;;;;;;17.03;3.20;;;19.20;99.90;;;;;;5042326;28;20563;-71
2022/04/25 07:41:13;;;;;;;21.80;4.10;;;19.30;99.90;;;;;;5069676;28;20182;-72
2022/04/25 07:43:44;;;;;;;21.43;3.67;;;19.40;99.90;;;;;;5043101;28;20194;-72
2022/04/25 07:46:16;;;;;;;33.73;4.27;;;19.50;99.90;;;;;;5053244;28;20233;-71
2022/04/25 07:48:45;;;;;;;24.80;3.67;;;19.60;99.90;;;;;;5074848;28;20178;-72
2022/04/25 07:51:12;;;;;;;28.80;5.37;;;19.60;99.90;;;;;;5071396;28;20206;-71
2022/04/25 07:53:42;;;;;;;18.60;4.27;;;19.70;99.90;;;;;;5056058;28;21207;-72
2022/04/25 07:56:10;;;;;;;26.40;4.17;;;19.70;99.90;;;;;;5064661;28;20562;-72
2022/04/25 07:58:43;;;;;;;17.40;3.80;;;19.80;99.90;;;;;;5067221;28;20190;-72
2022/04/25 08:01:13;;;;;;;26.47;4.60;;;19.90;99.90;;;;;;5058029;28;20651;-72
2022/04/25 08:03:45;;;;;;;21.83;3.97;;;19.90;99.90;;;;;;5063722;28;20722;-72
2022/04/25 08:06:15;;;;;;;24.50;3.63;;;20.00;99.90;;;;;;5046589;28;20186;-72
2022/04/25 08:08:42;;;;;;;16.60;3.47;;;20.00;99.90;;;;;;5059608;28;20274;-73
2022/04/25 08:11:11;;;;;;;19.90;3.40;;;20.10;99.90;;;;;;5063850;28;20244;-72
2022/04/25 08:19:13;;;;;;;24.23;4.07;;;20.30;99.90;;;;;;5057108;28;20182;-72
2022/04/25 08:21:43;;;;;;;20.53;4.27;;;20.40;99.90;;;;;;5078439;28;20194;-72
2022/04/25 08:24:13;;;;;;;17.00;3.70;;;20.50;99.90;;;;;;5062333;28;20716;-72
2022/04/25 08:26:43;;;;;;;25.60;3.77;;;20.50;99.90;;;;;;5045508;28;20641;-72
2022/04/25 08:29:10;;;;;;;18.23;3.47;;;20.60;99.90;;;;;;5075168;28;20187;-71
2022/04/25 08:31:42;;;;;;;19.63;3.97;;;20.70;99.90;;;;;;5047550;28;20255;-72
2022/04/25 08:34:09;;;;;;;16.47;4.10;;;20.80;99.90;;;;;;5062106;28;20189;-72
2022/04/25 08:36:37;;;;;;;23.93;3.70;;;20.90;99.90;;;;;;5040811;28;20186;-72
2022/04/25 08:39:07;;;;;;;22.27;3.87;;;21.00;99.90;;;;;;5073496;28;20654;-71
2022/04/25 08:41:59;;;;;;;21.77;3.67;;;21.10;99.90;;;;;;5056381;28;20189;-72
2022/04/25 08:44:30;;;;;;;18.87;3.93;;;21.20;99.90;;;;;;5052990;28;20293;-72
2022/04/25 08:46:59;;;;;;;13.70;3.83;;;21.30;99.90;;;;;;5051758;28;20217;-72
2022/04/25 08:49:29;;;;;;;19.87;3.43;;;21.30;99.90;;;;;;5083848;28;20209;-72
2022/04/25 08:52:00;;;;;;;25.98;4.25;;;21.40;99.90;;;;;;5068800;28;20195;-72
2022/04/25 08:54:32;;;;;;;23.60;3.50;;;21.40;99.90;;;;;;5042368;28;20183;-71
2022/04/25 08:57:04;;;;;;;20.85;3.22;;;21.50;99.90;;;;;;5058133;28;20261;-72
2022/04/25 08:59:36;;;;;;;25.03;3.73;;;21.60;99.90;;;;;;5064103;28;20946;-72
2022/04/25 09:02:04;;;;;;;25.58;4.10;;;21.70;99.90;;;;;;5059435;28;20197;-72
2022/04/25 09:04:30;;;;;;;15.80;3.30;;;21.80;99.90;;;;;;5058157;28;20749;-72
2022/04/25 09:07:00;;;;;;;25.40;3.93;;;21.80;99.90;;;;;;5075274;28;20187;-72
2022/04/25 09:09:27;;;;;;;28.58;3.97;;;21.90;99.90;;;;;;5064063;28;20187;-71
2022/04/25 09:12:10;;;;;;;23.48;5.28;;;22.00;99.90;;;;;;5068392;28;20284;-71
2022/04/25 09:14:43;;;;;;;21.63;5.30;;;22.00;99.90;;;;;;5065355;28;20178;-72
2022/04/25 09:17:23;;;;;;;16.20;3.53;;;22.10;99.80;;;;;;5046033;28;20191;-71
2022/04/25 09:19:51;;;;;;;26.33;3.60;;;22.20;99.90;;;;;;5065547;28;20182;-71
2022/04/25 09:22:35;;;;;;;22.27;4.25;;;22.30;99.90;;;;;;5057196;28;20186;-72
2022/04/25 09:25:15;;;;;;;32.05;4.18;;;22.30;99.90;;;;;;5048800;28;20266;-72
2022/04/25 09:27:44;;;;;;;21.67;3.67;;;22.40;99.90;;;;;;5064679;28;20190;-72
2022/04/25 09:30:22;;;;;;;24.83;4.67;;;22.50;99.40;;;;;;5047224;28;20546;-71
2022/04/25 09:32:57;;;;;;;18.67;4.10;;;22.70;99.40;;;;;;5074675;28;20218;-72
2022/04/25 09:35:38;;;;;;;24.23;3.83;;;22.70;99.80;;;;;;5053158;28;20182;-72
2022/04/25 09:38:09;;;;;;;22.92;4.28;;;22.80;99.40;;;;;;5060267;28;20326;-72
2022/04/25 09:40:41;;;;;;;29.17;3.63;;;22.90;99.10;;;;;;5046345;28;20201;-72
2022/04/25 09:43:16;;;;;;;23.63;3.78;;;23.00;99.00;;;;;;5072343;28;20190;-72
2022/04/25 09:45:49;;;;;;;16.98;3.30;;;23.10;98.50;;;;;;5077336;28;20202;-71
2022/04/25 09:48:23;;;;;;;13.43;3.58;;;23.20;98.30;;;;;;5038717;28;20289;-72
2022/04/25 09:51:11;;;;;;;21.02;3.60;;;23.30;98.60;;;;;;5051940;28;20195;-72
2022/04/25 09:53:54;;;;;;;20.77;4.28;;;23.40;98.80;;;;;;5067096;28;20658;-72
2022/04/25 09:56:23;;;;;;;24.48;3.88;;;23.40;98.40;;;;;;5046180;28;20209;-72
2022/04/25 09:59:10;;;;;;;27.30;4.35;;;23.60;98.60;;;;;;5047398;28;21037;-71
2022/04/25 10:01:43;;;;;;;20.90;3.78;;;23.70;98.50;;;;;;5066085;28;20231;-71
2022/04/25 10:04:33;;;;;;;38.53;4.43;;;23.70;98.80;;;;;;5048578;28;20218;-72
2022/04/25 10:07:07;;;;;;;22.60;4.18;;;23.90;99.00;;;;;;5038807;28;20218;-72
2022/04/25 10:09:35;;;;;;;22.85;4.35;;;23.90;99.10;;;;;;5064400;28;20212;-72
2022/04/25 10:12:05;;;;;;;28.60;4.35;;;24.00;99.00;;;;;;5067136;28;20211;-72
2022/04/25 10:14:33;;;;;;;27.58;4.25;;;24.00;99.40;;;;;;5069244;28;20704;-72
2022/04/25 10:17:01;;;;;;;23.63;3.50;;;24.10;99.30;;;;;;5042926;28;20269;-72
2022/04/25 10:19:30;;;;;;;20.85;4.28;;;24.10;98.90;;;;;;5048981;28;20614;-72
2022/04/25 10:21:58;;;;;;;23.70;3.88;;;24.10;98.90;;;;;;5045430;28;20287;-72
2022/04/25 10:24:26;;;;;;;23.48;4.97;;;24.20;98.30;;;;;;5025944;28;20226;-71
2022/04/25 10:26:54;;;;;;;18.50;4.70;;;24.30;98.60;;;;;;5049743;28;20186;-72
2022/04/25 10:29:31;;;;;;;26.48;3.78;;;24.30;98.10;;;;;;5044678;28;20571;-72
2022/04/25 10:32:01;;;;;;;22.00;3.70;;;24.30;98.40;;;;;;5062473;28;20698;-72
2022/04/25 10:35:04;;;;;;;25.05;3.97;;;24.30;98.20;;;;;;5057807;28;20284;-72
2022/04/25 10:37:59;;;;;;;30.13;4.78;;;24.30;98.70;;;;;;5034437;28;20280;-72
2022/04/25 10:46:23;;;;;;;22.75;3.70;;;24.50;98.70;;;;;;5065876;28;20190;-72
2022/04/25 10:49:07;;;;;;;22.65;3.95;;;24.50;98.80;;;;;;5056720;28;20234;-72
2022/04/25 10:51:41;;;;;;;27.35;3.70;;;24.50;98.60;;;;;;5046539;28;20202;-72
2022/04/25 10:54:14;;;;;;;23.77;3.92;;;24.50;98.40;;;;;;5062544;28;20189;-72
2022/04/25 10:57:11;;;;;;;17.90;3.72;;;24.50;98.00;;;;;;5075320;28;20610;-71
2022/04/25 10:59:39;;;;;;;22.80;3.80;;;24.50;98.10;;;;;;5053546;28;20191;-73
2022/04/25 11:02:27;;;;;;;15.23;3.33;;;24.50;98.20;;;;;;5037288;28;20186;-71
2022/04/25 11:05:19;;;;;;;19.65;3.83;;;24.50;98.20;;;;;;5057478;28;20197;-73
2022/04/25 11:07:52;;;;;;;29.38;3.60;;;24.50;98.20;;;;;;5072600;28;20190;-72
2022/04/25 11:11:10;;;;;;;30.50;3.72;;;24.50;97.30;;;;;;5035471;28;20187;-72
2022/04/25 11:14:01;;;;;;;23.25;3.58;;;24.50;97.70;;;;;;5064817;28;20207;-72
2022/04/25 11:16:28;;;;;;;26.17;3.88;;;24.60;98.50;;;;;;5046335;28;20194;-72
2022/04/25 11:19:21;;;;;;;14.75;3.17;;;24.60;98.00;;;;;;5076973;28;20198;-72
2022/04/25 11:22:01;;;;;;;20.45;3.67;;;24.60;97.90;;;;;;5060675;28;20205;-72
2022/04/25 11:24:42;;;;;;;29.45;3.47;;;24.60;97.40;;;;;;5071615;28;20186;-72
2022/04/25 11:27:21;;;;;;;20.80;3.80;;;24.60;97.30;;;;;;5071096;28;20297;-72
2022/04/25 11:30:17;;;;;;;33.88;5.18;;;24.60;97.50;;;;;;5064546;28;20198;-73
2022/04/25 11:32:46;;;;;;;24.23;3.70;;;24.60;97.40;;;;;;5057180;28;20249;-72
2022/04/25 11:35:15;;;;;;;18.95;3.05;;;24.60;97.40;;;;;;5038846;28;20185;-72
2022/04/25 11:37:44;;;;;;;26.77;3.47;;;24.60;97.00;;;;;;5064632;28;20190;-72
2022/04/25 11:40:21;;;;;;;16.08;3.17;;;24.70;97.20;;;;;;5066158;28;20909;-72
2022/04/25 11:42:48;;;;;;;28.73;4.15;;;24.70;97.20;;;;;;5075693;28;20334;-72
2022/04/25 11:45:14;;;;;;;23.15;3.88;;;24.70;96.70;;;;;;5050283;28;20198;-72
2022/04/25 11:47:41;;;;;;;20.20;3.22;;;24.70;96.60;;;;;;5069083;28;20194;-72
2022/04/25 11:50:12;;;;;;;16.30;3.55;;;24.70;96.10;;;;;;5081101;28;20222;-73
2022/04/25 11:52:55;;;;;;;17.42;3.53;;;24.70;96.40;;;;;;5068574;28;20242;-72
2022/04/25 11:55:38;;;;;;;27.98;3.85;;;24.60;96.20;;;;;;5063745;28;20190;-72
2022/04/25 11:58:07;;;;;;;16.73;4.47;;;24.70;96.80;;;;;;5063866;28;20194;-72
2022/04/25 12:00:34;;;;;;;25.23;4.07;;;24.70;96.70;;;;;;5034633;28;20191;-72
2022/04/25 12:03:01;;;;;;;37.72;3.85;;;24.70;96.80;;;;;;5079422;28;20191;-72
2022/04/25 12:05:32;;;;;;;26.80;3.95;;;24.70;96.80;;;;;;5066208;28;20218;-72
2022/04/25 12:16:31;;;;;;;64.32;5.40;;;24.70;96.70;;;;;;5067677;28;20909;-74
2022/04/25 12:19:07;;;;;;;28.35;4.10;;;24.70;96.90;;;;;;5043346;28;20194;-73
2022/04/25 12:21:37;;;;;;;23.85;4.18;;;24.70;96.90;;;;;;5063177;28;20183;-75
2022/04/25 12:24:05;;;;;;;91.25;6.75;;;24.70;97.50;;;;;;5074228;28;20190;-73
2022/04/25 12:26:38;;;;;;;125.85;9.20;;;24.70;97.80;;;;;;5073020;28;20252;-73
2022/04/25 12:29:09;;;;;;;30.05;4.43;;;24.70;97.90;;;;;;5068725;28;20984;-73
2022/04/25 12:31:46;;;;;;;83.38;6.97;;;24.70;97.90;;;;;;5049181;28;20309;-73
2022/04/25 12:34:14;;;;;;;47.78;5.47;;;24.70;98.20;;;;;;5059522;28;20186;-73
2022/04/25 12:36:56;;;;;;;149.45;11.65;;;24.70;97.90;;;;;;5059069;28;20716;-73
2022/04/25 12:39:24;;;;;;;31.25;3.90;;;24.70;98.10;;;;;;5063167;28;20186;-72
2022/04/25 12:42:02;;;;;;;14.90;3.33;;;24.70;97.80;;;;;;5065186;28;20248;-73
2022/04/25 12:44:29;;;;;;;44.08;5.20;;;24.70;97.90;;;;;;5050937;28;20202;-72
2022/04/25 12:47:08;;;;;;;37.15;4.47;;;24.70;98.60;;;;;;5080315;28;20183;-73
2022/04/25 12:49:43;;;;;;;779.63;48.75;;;24.70;98.80;;;;;;5056698;28;20650;-72
2022/04/25 12:52:12;;;;;;;58.45;5.70;;;24.70;98.90;;;;;;5068619;28;20230;-71
2022/04/25 12:54:43;;;;;;;144.52;9.93;;;24.70;99.00;;;;;;5074932;28;20189;-73
2022/04/25 12:57:18;;;;;;;19.55;3.95;;;24.70;98.50;;;;;;5064635;28;20216;-73
2022/04/25 12:59:58;;;;;;;15.68;3.35;;;24.70;99.30;;;;;;5056988;28;20331;-72
2022/04/25 13:02:37;;;;;;;23.75;3.70;;;24.70;99.60;;;;;;5070795;28;20185;-74
2022/04/25 13:05:09;;;;;;;27.35;4.03;;;24.70;99.60;;;;;;5053367;28;20191;-73
2022/04/25 13:07:40;;;;;;;26.42;5.25;;;24.70;99.90;;;;;;5065385;28;20190;-72
2022/04/25 13:10:21;;;;;;;24.30;4.28;;;24.70;99.70;;;;;;5064987;28;20192;-73
2022/04/25 13:12:54;;;;;;;32.53;4.70;;;24.60;99.90;;;;;;5045818;28;20252;-72
2022/04/25 13:15:29;;;;;;;27.88;4.28;;;24.60;99.90;;;;;;5068694;28;20247;-72
2022/04/25 13:17:55;;;;;;;25.83;3.67;;;24.60;99.90;;;;;;5074851;28;20235;-73
2022/04/25 13:20:28;;;;;;;18.00;3.60;;;24.70;99.90;;;;;;5066935;28;20214;-73
2022/04/25 13:22:55;;;;;;;27.60;4.00;;;24.70;99.90;;;;;;5063897;28;20701;-73
2022/04/25 13:25:25;;;;;;;29.77;4.75;;;24.60;99.90;;;;;;5086424;28;20247;-74
2022/04/25 13:27:54;;;;;;;29.75;3.85;;;24.60;99.90;;;;;;5056355;28;20189;-73
2022/04/25 13:30:22;;;;;;;24.25;4.20;;;24.60;99.60;;;;;;5057771;28;20286;-73
2022/04/25 13:32:50;;;;;;;27.45;4.32;;;24.60;99.80;;;;;;5062662;28;20218;-73
2022/04/25 13:35:18;;;;;;;22.20;4.13;;;24.60;99.90;;;;;;5073128;28;20197;-73
2022/04/25 13:37:45;;;;;;;29.23;4.70;;;24.50;99.50;;;;;;5068114;28;20195;-73
2022/04/25 13:40:13;;;;;;;26.70;4.32;;;24.50;99.70;;;;;;5081694;28;20263;-73